Time;durP1;ratioP1;P1;durP2;ratioP2;P2;SDS_P1;SDS_P2;PMS_P1;PMS_P2;Temp;Humidity;BMP_temperature;BMP_pressure;BME280_temperature;BME280_humidity;BME280_pressure;Samples;Min_cycle;Max_cycle;Signal;HPM_P1;HPM_P2
2023/10/14 00:01:45;;;;;;;;;;;;;;;11.11;100.00;99994.84;4916619;28;19938;-80
2023/10/14 00:04:31;;;;;;;;;;;;;;;11.08;100.00;99992.38;4928440;29;19930;-81
2023/10/14 00:07:17;;;;;;;;;;;;;;;11.06;100.00;99990.78;4927835;28;22108;-80
2023/10/14 00:10:06;;;;;;;;;;;;;;;11.03;100.00;99998.88;4927380;29;19930;-80
2023/10/14 00:12:54;;;;;;;;;;;;;;;11.02;100.00;100015.72;4927998;29;20038;-80
2023/10/14 00:15:40;;;;;;;;;;;;;;;10.98;100.00;100012.41;4927550;29;19931;-80
2023/10/14 00:18:25;;;;;;;;;;;;;;;10.91;100.00;100017.25;4902073;29;20510;-80
2023/10/14 00:21:12;;;;;;;;;;;;;;;10.84;100.00;100027.34;4928452;29;20029;-80
2023/10/14 00:23:57;;;;;;;;;;;;;;;10.79;100.00;100036.50;4928190;29;19931;-80
2023/10/14 00:26:47;;;;;;;;;;;;;;;10.66;100.00;100034.56;4927394;29;20033;-81
2023/10/14 00:29:34;;;;;;;;;;;;;;;10.49;100.00;100037.34;4913320;29;19941;-81
2023/10/14 00:32:20;;;;;;;;;;;;;;;10.37;100.00;100047.69;4928524;28;21399;-81
2023/10/14 00:35:09;;;;;;;;;;;;;;;10.27;100.00;100049.13;4918542;29;19926;-80
2023/10/14 00:37:55;;;;;;;;;;;;;;;10.15;100.00;100056.81;4912441;29;19927;-81
2023/10/14 00:40:45;;;;;;;;;;;;;;;10.03;100.00;100062.81;4927282;28;20413;-80
2023/10/14 00:43:31;;;;;;;;;;;;;;;9.94;100.00;100068.59;4927515;28;20394;-81
2023/10/14 00:46:18;;;;;;;;;;;;;;;9.87;100.00;100074.22;4926495;28;20045;-81
2023/10/14 00:49:04;;;;;;;;;;;;;;;9.76;100.00;100079.25;4927629;29;19934;-80
2023/10/14 00:51:51;;;;;;;;;;;;;;;9.70;100.00;100077.78;4928054;28;20444;-80
2023/10/14 00:57:38;;;;;;;;;;;;;;;9.56;100.00;100086.47;4926237;29;19933;-81
2023/10/14 01:00:34;;;;;;;;;;;;;;;9.51;100.00;100091.13;4927617;29;20418;-81
2023/10/14 01:03:19;;;;;;;;;;;;;;;9.50;100.00;100097.34;4927272;29;20419;-82
2023/10/14 01:09:16;;;;;;;;;;;;;;;9.53;100.00;100115.69;4924649;29;19946;-81
2023/10/14 01:12:17;;;;;;;;;;;;;;;9.54;100.00;100116.53;4928603;29;21835;-82
2023/10/14 01:15:10;;;;;;;;;;;;;;;9.50;100.00;100124.63;4926655;29;19930;-82
2023/10/14 01:17:56;;;;;;;;;;;;;;;9.48;100.00;100123.84;4927373;28;19954;-81
2023/10/14 01:20:42;;;;;;;;;;;;;;;9.45;100.00;100133.72;4926984;29;19935;-81
2023/10/14 01:23:28;;;;;;;;;;;;;;;9.40;100.00;100133.09;4911866;29;20397;-82
2023/10/14 01:26:13;;;;;;;;;;;;;;;9.37;100.00;100145.56;4926855;28;19945;-82
2023/10/14 01:29:00;;;;;;;;;;;;;;;9.35;100.00;100136.88;4927912;28;19930;-82
2023/10/14 01:31:54;;;;;;;;;;;;;;;9.34;100.00;100145.72;4924814;29;19973;-82
2023/10/14 01:34:43;;;;;;;;;;;;;;;9.34;100.00;100145.72;4912957;29;19984;-82
2023/10/14 01:37:35;;;;;;;;;;;;;;;9.34;100.00;100147.50;4924696;29;19940;-81
2023/10/14 01:40:27;;;;;;;;;;;;;;;9.35;100.00;100157.13;4913935;28;20804;-81
2023/10/14 01:43:15;;;;;;;;;;;;;;;9.35;100.00;100152.72;4927467;28;19931;-81
2023/10/14 01:46:01;;;;;;;;;;;;;;;9.35;100.00;100163.28;4925474;29;20089;-82
2023/10/14 01:48:52;;;;;;;;;;;;;;;9.36;100.00;100164.13;4925939;29;19930;-81
2023/10/14 01:51:38;;;;;;;;;;;;;;;9.41;100.00;100169.19;4913279;29;20476;-81
2023/10/14 01:54:23;;;;;;;;;;;;;;;9.46;100.00;100175.06;4897639;29;19927;-82
2023/10/14 01:57:15;;;;;;;;;;;;;;;9.48;100.00;100184.63;4927267;28;19978;-81
2023/10/14 02:00:12;;;;;;;;;;;;;;;9.52;100.00;100195.88;4926511;29;19969;-82
2023/10/14 02:03:06;;;;;;;;;;;;;;;9.53;100.00;100197.59;4914373;29;19926;-81
2023/10/14 02:05:51;;;;;;;;;;;;;;;9.54;100.00;100193.19;4926196;29;19930;-81
2023/10/14 02:08:38;;;;;;;;;;;;;;;9.54;100.00;100201.97;4928153;29;19935;-81
2023/10/14 02:11:24;;;;;;;;;;;;;;;9.53;100.00;100208.16;4926597;29;19938;-81
2023/10/14 02:14:09;;;;;;;;;;;;;;;9.53;100.00;100215.25;4901240;29;19955;-81
2023/10/14 02:16:55;;;;;;;;;;;;;;;9.52;100.00;100214.38;4928466;28;19934;-81
2023/10/14 02:19:41;;;;;;;;;;;;;;;9.50;100.00;100218.91;4927969;28;19933;-81
2023/10/14 02:22:27;;;;;;;;;;;;;;;9.50;100.00;100227.66;4927361;29;19942;-81
2023/10/14 02:25:15;;;;;;;;;;;;;;;9.52;100.00;100238.16;4927042;29;20012;-82
2023/10/14 02:28:01;;;;;;;;;;;;;;;9.56;100.00;100239.75;4914669;29;19930;-82
2023/10/14 02:30:51;;;;;;;;;;;;;;;9.59;100.00;100246.66;4927691;28;19935;-82
2023/10/14 02:33:36;;;;;;;;;;;;;;;9.62;100.00;100246.50;4927762;29;20394;-82
2023/10/14 02:36:27;;;;;;;;;;;;;;;9.64;100.00;100244.63;4926852;28;22032;-82
2023/10/14 02:39:14;;;;;;;;;;;;;;;9.68;100.00;100251.47;4911088;29;19999;-82
2023/10/14 02:42:07;;;;;;;;;;;;;;;9.69;100.00;100254.97;4927516;28;20073;-81
2023/10/14 02:44:53;;;;;;;;;;;;;;;9.68;100.00;100274.38;4930549;29;20455;-81
2023/10/14 02:47:40;;;;;;;;;;;;;;;9.64;100.00;100279.84;4930676;29;20242;-81
2023/10/14 02:50:26;;;;;;;;;;;;;;;9.63;100.00;100286.06;4918256;29;19934;-82
2023/10/14 02:53:21;;;;;;;;;;;;;;;9.63;100.00;100288.72;4918822;29;20386;-81
2023/10/14 02:56:07;;;;;;;;;;;;;;;9.60;100.00;100296.78;4929539;28;19935;-83
2023/10/14 02:58:54;;;;;;;;;;;;;;;9.58;100.00;100296.00;4917465;28;20306;-81
2023/10/14 03:02:14;;;;;;;;;;;;;;;9.54;100.00;100309.44;4930016;29;20017;-82
2023/10/14 03:07:46;;;;;;;;;;;;;;;9.47;100.00;100315.03;4928561;29;19931;-81
2023/10/14 03:10:35;;;;;;;;;;;;;;;9.47;100.00;100324.75;4928098;29;19931;-82
2023/10/14 03:13:22;;;;;;;;;;;;;;;9.45;100.00;100330.13;4917823;29;20026;-81
2023/10/14 03:16:08;;;;;;;;;;;;;;;9.44;100.00;100330.19;4928186;28;20409;-81
2023/10/14 03:18:54;;;;;;;;;;;;;;;9.46;100.00;100333.59;4928714;29;19931;-81
2023/10/14 03:21:53;;;;;;;;;;;;;;;9.45;100.00;100338.06;4929454;29;19938;-81
2023/10/14 03:24:39;;;;;;;;;;;;;;;9.46;100.00;100349.47;4929009;29;20027;-81
2023/10/14 03:27:27;;;;;;;;;;;;;;;9.42;100.00;100346.09;4930091;29;20418;-81
2023/10/14 03:30:17;;;;;;;;;;;;;;;9.39;100.00;100364.75;4932038;28;19941;-82
2023/10/14 03:33:10;;;;;;;;;;;;;;;9.38;100.00;100371.00;4929325;29;19966;-81
2023/10/14 03:35:57;;;;;;;;;;;;;;;9.37;100.00;100385.97;4916532;29;20085;-81
2023/10/14 03:38:46;;;;;;;;;;;;;;;9.38;100.00;100385.03;4929486;29;20071;-81
2023/10/14 03:41:37;;;;;;;;;;;;;;;9.41;100.00;100393.75;4928569;28;19934;-82
2023/10/14 03:44:24;;;;;;;;;;;;;;;9.40;100.00;100395.53;4929652;29;20318;-82
2023/10/14 03:47:16;;;;;;;;;;;;;;;9.40;100.00;100399.94;4928465;29;21948;-81
2023/10/14 03:50:02;;;;;;;;;;;;;;;9.39;100.00;100407.03;4928795;29;20592;-82
2023/10/14 03:52:48;;;;;;;;;;;;;;;9.37;100.00;100409.75;4929097;28;19927;-81
2023/10/14 03:55:34;;;;;;;;;;;;;;;9.35;100.00;100406.34;4928502;28;19939;-82
2023/10/14 03:58:19;;;;;;;;;;;;;;;9.36;100.00;100420.38;4929590;29;19934;-82
2023/10/14 04:01:05;;;;;;;;;;;;;;;9.32;100.00;100432.88;4929062;29;19930;-82
2023/10/14 04:03:54;;;;;;;;;;;;;;;9.33;100.00;100441.66;4918088;28;20702;-82
2023/10/14 04:06:41;;;;;;;;;;;;;;;9.35;100.00;100443.31;4929147;28;19935;-82
2023/10/14 04:09:44;;;;;;;;;;;;;;;9.38;100.00;100456.38;4913687;28;19935;-83
2023/10/14 04:12:30;;;;;;;;;;;;;;;9.40;100.00;100456.31;4928331;28;20906;-82
2023/10/14 04:15:33;;;;;;;;;;;;;;;9.41;100.00;100458.00;4925570;28;20442;-82
2023/10/14 04:18:24;;;;;;;;;;;;;;;9.38;100.00;100453.72;4928861;29;19931;-83
2023/10/14 04:21:19;;;;;;;;;;;;;;;9.45;100.00;100470.16;4929406;28;19930;-82
2023/10/14 04:24:12;;;;;;;;;;;;;;;9.46;100.00;100471.00;4929920;29;20126;-81
2023/10/14 04:27:16;;;;;;;;;;;;;;;9.44;100.00;100470.22;4929374;29;19938;-81
2023/10/14 04:30:12;;;;;;;;;;;;;;;9.43;100.00;100477.28;4929904;28;19930;-83
2023/10/14 04:39:05;;;;;;;;;;;;;;;9.34;100.00;100489.16;4930144;28;20386;-81
2023/10/14 04:42:21;;;;;;;;;;;;;;;9.35;100.00;100492.66;4927956;29;19938;-82
2023/10/14 04:45:04;;;;;;;;;;;;;;;9.35;100.00;100501.44;4918597;29;20036;-82
2023/10/14 04:47:50;;;;;;;;;;;;;;;9.38;100.00;100501.28;4929478;28;19935;-82
2023/10/14 04:50:38;;;;;;;;;;;;;;;9.40;100.00;100498.59;4928313;28;19935;-83
2023/10/14 04:53:27;;;;;;;;;;;;;;;9.44;100.00;100509.88;4928478;29;19942;-82
2023/10/14 04:56:21;;;;;;;;;;;;;;;9.42;100.00;100517.84;4929864;28;19934;-82
2023/10/14 04:59:06;;;;;;;;;;;;;;;9.40;100.00;100513.56;4913102;29;20009;-82
2023/10/14 05:01:52;;;;;;;;;;;;;;;9.37;100.00;100519.84;4929827;28;19941;-82
2023/10/14 05:04:41;;;;;;;;;;;;;;;9.33;100.00;100521.75;4927589;29;19930;-83
2023/10/14 05:07:28;;;;;;;;;;;;;;;9.29;100.00;100541.34;4925621;29;20420;-83
2023/10/14 05:10:15;;;;;;;;;;;;;;;9.26;100.00;100541.47;4927534;29;19946;-83
2023/10/14 05:13:09;;;;;;;;;;;;;;;9.21;100.00;100546.97;4916947;28;19977;-83
2023/10/14 05:16:14;;;;;;;;;;;;;;;9.15;100.00;100552.50;4929374;28;19985;-82
2023/10/14 05:19:05;;;;;;;;;;;;;;;9.09;100.00;100555.41;4928169;29;19957;-85
2023/10/14 05:22:26;;;;;;;;;;;;;;;9.02;100.00;100562.75;4929129;29;19926;-86
2023/10/14 05:25:08;;;;;;;;;;;;;;;8.96;100.00;100563.03;4928570;29;20049;-87
2023/10/14 05:28:06;;;;;;;;;;;;;;;8.93;100.00;100568.47;4916047;29;19927;-84
2023/10/14 05:30:55;;;;;;;;;;;;;;;8.93;100.00;100579.84;4916158;29;19934;-83
2023/10/14 05:33:42;;;;;;;;;;;;;;;8.92;100.00;100587.84;4928258;29;21492;-87
2023/10/14 05:36:28;;;;;;;;;;;;;;;8.90;100.00;100584.41;4914294;29;20089;-86
2023/10/14 05:39:14;;;;;;;;;;;;;;;8.89;100.00;100593.25;4912997;29;20559;-88
2023/10/14 05:41:59;;;;;;;;;;;;;;;8.87;100.00;100605.69;4915000;29;19941;-87
2023/10/14 05:44:49;;;;;;;;;;;;;;;8.85;100.00;100603.09;4927883;29;19934;-87
2023/10/14 05:47:34;;;;;;;;;;;;;;;8.86;100.00;100615.38;4925021;29;19930;-88
2023/10/14 05:50:20;;;;;;;;;;;;;;;8.88;100.00;100621.44;4913380;29;19938;-85
2023/10/14 05:53:07;;;;;;;;;;;;;;;8.92;100.00;100624.81;4927187;29;19935;-87
2023/10/14 05:55:56;;;;;;;;;;;;;;;8.97;100.00;100625.47;4919622;28;19926;-85
2023/10/14 05:58:42;;;;;;;;;;;;;;;9.00;100.00;100637.69;4908940;29;19926;-83
2023/10/14 06:01:28;;;;;;;;;;;;;;;9.06;100.00;100634.78;4912914;29;20017;-84
2023/10/14 06:04:14;;;;;;;;;;;;;;;9.07;100.00;100645.31;4903536;29;19930;-83
2023/10/14 06:07:00;;;;;;;;;;;;;;;9.09;100.00;100661.06;4911506;29;19989;-83
2023/10/14 06:09:46;;;;;;;;;;;;;;;9.08;100.00;100667.28;4927400;29;19981;-83
2023/10/14 06:12:32;;;;;;;;;;;;;;;9.09;100.00;100668.97;4902801;29;19926;-83
2023/10/14 06:15:18;;;;;;;;;;;;;;;9.12;100.00;100683.84;4925695;29;19937;-83
2023/10/14 06:18:05;;;;;;;;;;;;;;;9.10;100.00;100691.84;4927915;28;19934;-83
2023/10/14 06:20:53;;;;;;;;;;;;;;;9.08;100.00;100691.91;4909971;29;19931;-84
2023/10/14 06:23:48;;;;;;;;;;;;;;;9.05;100.00;100699.94;4926223;29;19952;-84
2023/10/14 06:26:34;;;;;;;;;;;;;;;9.01;100.00;100703.66;4927007;29;19930;-84
2023/10/14 06:29:19;;;;;;;;;;;;;;;8.97;100.00;100712.59;4927334;29;19931;-84
2023/10/14 06:32:05;;;;;;;;;;;;;;;8.96;100.00;100721.47;4926597;28;20379;-84
2023/10/14 06:35:02;;;;;;;;;;;;;;;8.93;100.00;100716.31;4916653;28;19935;-84
2023/10/14 06:37:49;;;;;;;;;;;;;;;8.88;100.00;100728.84;4914671;29;20371;-83
2023/10/14 06:40:37;;;;;;;;;;;;;;;8.87;100.00;100732.41;4928957;28;20409;-85
2023/10/14 06:43:25;;;;;;;;;;;;;;;8.85;100.00;100737.72;4924810;28;20049;-85
2023/10/14 06:46:16;;;;;;;;;;;;;;;8.88;100.00;100749.94;4914563;28;19930;-85
2023/10/14 06:49:01;;;;;;;;;;;;;;;8.97;100.00;100749.56;4925622;29;19935;-92
2023/10/14 06:51:48;;;;;;;;;;;;;;;9.01;100.00;100756.47;4910288;29;19927;-92
2023/10/14 06:54:36;;;;;;;;;;;;;;;9.04;100.00;100758.97;4914297;29;19931;-87
2023/10/14 06:57:22;;;;;;;;;;;;;;;9.09;100.00;100762.28;4900396;29;20024;-83
2023/10/14 07:00:11;;;;;;;;;;;;;;;9.19;100.00;100775.13;4927842;28;20573;-83
2023/10/14 07:02:59;;;;;;;;;;;;;;;9.30;100.00;100772.91;4924967;29;19978;-83
2023/10/14 07:05:48;;;;;;;;;;;;;;;9.34;100.00;100785.06;4925413;28;20061;-83
2023/10/14 07:08:36;;;;;;;;;;;;;;;9.42;100.00;100792.66;4926759;29;19926;-84
2023/10/14 07:11:21;;;;;;;;;;;;;;;9.46;100.00;100798.69;4927437;29;20301;-83
2023/10/14 07:14:08;;;;;;;;;;;;;;;9.48;100.00;100799.50;4927600;29;21320;-91
2023/10/14 07:16:54;;;;;;;;;;;;;;;9.53;100.00;100797.50;4907546;29;19927;-94
2023/10/14 07:19:43;;;;;;;;;;;;;;;9.57;100.00;100803.50;4913418;29;19978;-92
2023/10/14 07:22:32;;;;;;;;;;;;;;;9.60;100.00;100800.75;4909932;29;19938;-93
2023/10/14 07:25:23;;;;;;;;;;;;;;;9.63;100.00;100805.91;4912735;29;19961;-93
2023/10/14 07:28:13;;;;;;;;;;;;;;;9.68;100.00;100813.63;4916386;29;19997;-86
2023/10/14 07:30:59;;;;;;;;;;;;;;;9.71;100.00;100813.53;4905725;29;19934;-84
2023/10/14 07:33:45;;;;;;;;;;;;;;;9.76;100.00;100808.91;4931964;28;19953;-91
2023/10/14 07:36:31;;;;;;;;;;;;;;;9.78;100.00;100810.56;4906176;29;19958;-88
2023/10/14 07:39:34;;;;;;;;;;;;;;;9.80;100.00;100812.28;4907776;28;19934;-91
2023/10/14 07:42:21;;;;;;;;;;;;;;;9.88;100.00;100823.38;4905638;29;19927;-86
2023/10/14 07:45:10;;;;;;;;;;;;;;;9.94;100.00;100830.19;4914914;29;19926;-86
2023/10/14 07:47:56;;;;;;;;;;;;;;;9.99;100.00;100831.72;4915421;28;20413;-84
2023/10/14 07:50:42;;;;;;;;;;;;;;;10.05;100.00;100835.88;4904660;29;20162;-87
2023/10/14 07:53:28;;;;;;;;;;;;;;;10.10;100.00;100841.84;4930468;29;19934;-89
2023/10/14 07:56:14;;;;;;;;;;;;;;;10.17;100.00;100839.75;4904388;29;19931;-89
2023/10/14 07:59:01;;;;;;;;;;;;;;;10.22;100.00;100853.66;4905045;29;19949;-89
2023/10/14 08:01:47;;;;;;;;;;;;;;;10.26;100.00;100847.31;4923458;28;19986;-90
2023/10/14 08:04:32;;;;;;;;;;;;;;;10.33;100.00;100858.47;4932928;28;19935;-85
2023/10/14 08:07:18;;;;;;;;;;;;;;;10.41;100.00;100860.78;4904917;29;19938;-85
2023/10/14 08:10:16;;;;;;;;;;;;;;;10.55;100.00;100854.91;4928776;28;19930;-84
2023/10/14 08:13:04;;;;;;;;;;;;;;;10.67;100.00;100866.75;4915930;29;19937;-81
2023/10/14 08:15:51;;;;;;;;;;;;;;;10.61;100.00;100883.75;4917137;29;21883;-81
2023/10/14 08:18:36;;;;;;;;;;;;;;;10.49;100.00;100884.28;4912510;29;19927;-86
2023/10/14 08:21:22;;;;;;;;;;;;;;;10.36;100.00;100890.13;4907948;29;19941;-84
2023/10/14 08:24:08;;;;;;;;;;;;;;;10.24;100.00;100895.94;4928388;29;19935;-83
2023/10/14 08:26:53;;;;;;;;;;;;;;;10.15;100.00;100900.66;4927222;29;19934;-83
2023/10/14 08:29:41;;;;;;;;;;;;;;;10.11;100.00;100904.38;4928171;28;19937;-85
2023/10/14 08:32:27;;;;;;;;;;;;;;;10.13;100.00;100910.47;4918583;29;19926;-83
2023/10/14 08:35:17;;;;;;;;;;;;;;;10.18;100.00;100908.50;4911209;29;19930;-81
2023/10/14 08:38:03;;;;;;;;;;;;;;;10.25;100.00;100902.94;4904845;29;19950;-86
2023/10/14 08:40:52;;;;;;;;;;;;;;;10.29;100.00;100915.09;4915343;29;19985;-86
2023/10/14 08:43:38;;;;;;;;;;;;;;;10.35;100.00;100919.28;4929376;28;19930;-89
2023/10/14 08:46:29;;;;;;;;;;;;;;;10.40;100.00;100925.25;4921161;28;20002;-88
2023/10/14 08:49:16;;;;;;;;;;;;;;;10.49;100.00;100924.00;4926194;28;19944;-93
2023/10/14 08:52:09;;;;;;;;;;;;;;;10.59;100.00;100938.56;4914985;29;19929;-93
2023/10/14 08:54:54;;;;;;;;;;;;;;;10.75;100.00;100933.44;4910591;29;19934;-92
2023/10/14 08:57:46;;;;;;;;;;;;;;;10.91;100.00;100951.28;4912553;29;19977;-93
2023/10/14 09:00:38;;;;;;;;;;;;;;;10.82;100.00;100944.59;4914885;29;19933;-91
2023/10/14 09:03:24;;;;;;;;;;;;;;;10.65;100.00;100942.72;4907814;29;19927;-95
2023/10/14 09:06:12;;;;;;;;;;;;;;;10.51;100.00;100956.56;4927476;29;19927;-95
2023/10/14 09:08:58;;;;;;;;;;;;;;;10.41;100.00;100959.56;4939078;29;19930;-94
2023/10/14 09:11:44;;;;;;;;;;;;;;;10.37;100.00;100965.94;4940572;29;20287;-93
2023/10/14 09:14:29;;;;;;;;;;;;;;;10.37;100.00;100973.00;4942383;28;19945;-92
2023/10/14 09:17:15;;;;;;;;;;;;;;;10.39;100.00;100971.13;4935063;28;20386;-91
2023/10/14 09:20:01;;;;;;;;;;;;;;;10.42;100.00;100974.53;4940316;29;19930;-93
2023/10/14 09:22:47;;;;;;;;;;;;;;;10.47;100.00;100977.03;4937473;29;19965;-91
2023/10/14 09:25:33;;;;;;;;;;;;;;;10.57;100.00;100991.56;4936696;28;19946;-93
2023/10/14 09:28:22;;;;;;;;;;;;;;;10.64;100.00;100993.94;4923679;29;19932;-89
2023/10/14 09:31:08;;;;;;;;;;;;;;;10.72;100.00;101007.72;4912932;29;20005;-87
2023/10/14 09:33:54;;;;;;;;;;;;;;;10.82;100.00;101009.03;4907593;29;19927;-93
2023/10/14 09:36:43;;;;;;;;;;;;;;;10.89;100.00;101009.63;4911683;29;20386;-93
2023/10/14 09:39:33;;;;;;;;;;;;;;;10.79;100.00;101013.63;4924756;29;21498;-91
2023/10/14 09:42:18;;;;;;;;;;;;;;;10.70;100.00;101013.09;4913270;29;19922;-89
2023/10/14 09:45:11;;;;;;;;;;;;;;;10.66;100.00;101022.09;4923245;29;20313;-93
2023/10/14 09:47:57;;;;;;;;;;;;;;;10.67;100.00;101021.16;4915186;29;20429;-93
2023/10/14 09:50:44;;;;;;;;;;;;;;;10.68;100.00;101033.47;4924643;29;19927;-94
2023/10/14 09:53:32;;;;;;;;;;;;;;;10.67;100.00;101042.34;4913202;29;20387;-93
2023/10/14 09:56:17;;;;;;;;;;;;;;;10.63;100.00;101043.41;4939140;28;20081;-89
2023/10/14 09:59:03;;;;;;;;;;;;;;;10.59;100.00;101042.66;4926921;29;19950;-92
2023/10/14 10:01:49;;;;;;;;;;;;;;;10.57;100.00;101033.91;4916093;28;19933;-93
2023/10/14 10:04:34;;;;;;;;;;;;;;;10.56;100.00;101032.22;4924580;29;19941;-91
2023/10/14 10:07:23;;;;;;;;;;;;;;;10.61;100.00;101036.47;4937573;29;20041;-91
2023/10/14 10:10:18;;;;;;;;;;;;;;;10.70;100.00;101047.53;4937108;29;19930;-92
2023/10/14 10:13:04;;;;;;;;;;;;;;;10.79;100.00;101050.69;4921334;29;19953;-91
2023/10/14 10:15:50;;;;;;;;;;;;;;;10.84;100.00;101057.50;4921873;29;19977;-82
2023/10/14 10:18:57;;;;;;;;;;;;;;;10.88;100.00;101065.31;4935494;28;20283;-91
2023/10/14 10:22:02;;;;;;;;;;;;;;;10.93;100.00;101058.91;4933997;29;19927;-94
2023/10/14 10:24:47;;;;;;;;;;;;;;;11.00;100.00;101068.28;4924450;29;20369;-93
2023/10/14 10:27:33;;;;;;;;;;;;;;;11.12;100.00;101060.75;4913716;29;20021;-88
2023/10/14 10:30:20;;;;;;;;;;;;;;;11.19;100.00;101070.13;4911465;29;20591;-79
2023/10/14 10:33:10;;;;;;;;;;;;;;;11.21;100.00;101067.41;4925807;28;19949;-84
2023/10/14 10:35:59;;;;;;;;;;;;;;;11.17;100.00;101077.28;4926850;29;19930;-86
2023/10/14 10:38:45;;;;;;;;;;;;;;;11.13;100.00;101081.00;4925775;29;20469;-81
2023/10/14 10:41:30;;;;;;;;;;;;;;;11.08;100.00;101075.03;4911190;29;20412;-81
2023/10/14 10:44:18;;;;;;;;;;;;;;;11.05;100.00;101075.19;4913022;29;20737;-83
2023/10/14 10:47:04;;;;;;;;;;;;;;;11.07;100.00;101071.53;4925886;29;20401;-86
2023/10/14 10:49:56;;;;;;;;;;;;;;;11.16;100.00;101080.00;4911926;28;19937;-85
2023/10/14 10:52:45;;;;;;;;;;;;;;;11.31;100.00;101074.03;4910296;29;20545;-86
2023/10/14 10:55:31;;;;;;;;;;;;;;;11.41;100.00;101095.69;4927991;29;20814;-83
2023/10/14 10:58:17;;;;;;;;;;;;;;;11.30;100.00;101113.84;4911138;29;20409;-83
2023/10/14 11:01:02;;;;;;;;;;;;;;;10.95;100.00;101110.00;4926378;29;20080;-82
2023/10/14 11:03:49;;;;;;;;;;;;;;;10.66;100.00;101104.16;4926506;28;19922;-85
2023/10/14 11:06:35;;;;;;;;;;;;;;;10.42;100.00;101090.13;4914833;29;19930;-84
2023/10/14 11:09:21;;;;;;;;;;;;;;;10.31;100.00;101094.06;4915393;28;19970;-85
2023/10/14 11:12:10;;;;;;;;;;;;;;;10.35;100.00;101102.72;4918556;29;20449;-93
2023/10/14 11:14:58;;;;;;;;;;;;;;;10.49;100.00;101117.22;4906950;29;20370;-82
2023/10/14 11:17:47;;;;;;;;;;;;;;;10.56;100.00;101110.75;4919934;28;19932;-82
2023/10/14 11:20:34;;;;;;;;;;;;;;;10.54;100.00;101115.25;4915567;28;20014;-81
2023/10/14 11:23:19;;;;;;;;;;;;;;;10.50;100.00;101109.22;4914784;28;19977;-80
2023/10/14 11:26:08;;;;;;;;;;;;;;;10.45;100.00;101120.00;4914526;29;19930;-83
2023/10/14 11:28:54;;;;;;;;;;;;;;;10.40;100.00;101119.28;4912202;28;19966;-84
2023/10/14 11:31:42;;;;;;;;;;;;;;;10.32;100.00;101122.28;4933206;28;19935;-90
2023/10/14 11:34:35;;;;;;;;;;;;;;;10.26;100.00;101142.81;4914557;29;19937;-81
2023/10/14 11:37:24;;;;;;;;;;;;;;;10.23;100.00;101151.72;4913743;29;19978;-82
2023/10/14 11:40:13;;;;;;;;;;;;;;;10.26;100.00;101143.69;4913910;29;19934;-81
2023/10/14 11:42:58;;;;;;;;;;;;;;;10.35;100.00;101146.88;4928945;29;19931;-80
2023/10/14 11:45:44;;;;;;;;;;;;;;;10.48;100.00;101141.97;4912555;29;19949;-81
2023/10/14 11:48:33;;;;;;;;;;;;;;;10.63;100.00;101143.16;4927320;29;20055;-80
2023/10/14 11:51:22;;;;;;;;;;;;;;;10.78;100.00;101145.16;4913540;28;19973;-80
2023/10/14 11:54:08;;;;;;;;;;;;;;;10.92;100.00;101144.59;4929426;28;20588;-80
2023/10/14 11:56:53;;;;;;;;;;;;;;;11.04;100.00;101150.28;4914949;28;19937;-81
2023/10/14 11:59:39;;;;;;;;;;;;;;;11.07;100.00;101150.16;4930425;28;19927;-79
2023/10/14 12:02:27;;;;;;;;;;;;;;;10.98;100.00;101141.69;4930321;28;19934;-83
2023/10/14 12:05:16;;;;;;;;;;;;;;;10.95;100.00;101164.78;4916201;29;19927;-82
2023/10/14 12:08:04;;;;;;;;;;;;;;;10.96;100.00;101154.13;4913730;29;19981;-86
2023/10/14 12:10:50;;;;;;;;;;;;;;;10.95;100.00;101162.16;4908073;28;19935;-80
2023/10/14 12:13:36;;;;;;;;;;;;;;;10.99;100.00;101150.47;4922647;28;19931;-80
2023/10/14 12:16:22;;;;;;;;;;;;;;;11.05;100.00;101166.13;4927267;28;19927;-79
2023/10/14 12:19:11;;;;;;;;;;;;;;;11.07;100.00;101169.56;4925673;28;19930;-80
2023/10/14 12:21:57;;;;;;;;;;;;;;;11.13;100.00;101161.34;4927869;29;20581;-82
2023/10/14 12:24:43;;;;;;;;;;;;;;;11.15;100.00;101163.94;4928058;29;19930;-86
2023/10/14 12:27:28;;;;;;;;;;;;;;;11.12;100.00;101180.81;4910319;29;20298;-83
2023/10/14 12:33:35;;;;;;;;;;;;;;;11.11;100.00;101181.75;4864651;29;19923;-80
2023/10/14 12:36:22;;;;;;;;;;;;;;;11.10;100.00;101192.41;4929146;28;20619;-79
2023/10/14 12:39:18;;;;;;;;;;;;;;;11.08;100.00;101192.50;4910944;28;20053;-80
2023/10/14 12:42:06;;;;;;;;;;;;;;;11.09;100.00;101198.66;4925786;28;19926;-80
2023/10/14 12:44:52;;;;;;;;;;;;;;;11.09;98.49;101206.59;4929721;29;19960;-78
2023/10/14 12:47:46;;;;;;;;;;;;;;;11.10;100.00;101203.00;4929120;28;20280;-83
2023/10/14 12:50:33;;;;;;;;;;;;;;;11.15;98.65;101203.69;4909504;28;19926;-79
2023/10/14 12:53:18;;;;;;;;;;;;;;;11.18;98.87;101198.28;4911436;28;19934;-80
2023/10/14 12:56:07;;;;;;;;;;;;;;;11.19;97.91;101209.72;4924946;28;20038;-79
2023/10/14 12:58:53;;;;;;;;;;;;;;;11.23;99.72;101206.88;4927406;28;19981;-80
2023/10/14 13:01:39;;;;;;;;;;;;;;;11.30;100.00;101199.53;4911166;28;20713;-82
2023/10/14 13:04:27;;;;;;;;;;;;;;;11.43;100.00;101207.81;4926825;29;20394;-80
2023/10/14 13:07:12;;;;;;;;;;;;;;;11.49;100.00;101204.88;4899514;29;19930;-79
2023/10/14 13:09:58;;;;;;;;;;;;;;;11.51;100.00;101213.63;4925521;29;20928;-81
2023/10/14 13:12:51;;;;;;;;;;;;;;;11.50;100.00;101213.72;4925893;28;20393;-81
2023/10/14 13:15:36;;;;;;;;;;;;;;;11.43;100.00;101221.06;4914254;29;20022;-80
2023/10/14 13:18:24;;;;;;;;;;;;;;;11.31;100.00;101222.47;4929145;28;19930;-81
2023/10/14 13:21:14;;;;;;;;;;;;;;;11.16;99.21;101218.66;4924807;28;19937;-81
2023/10/14 13:24:05;;;;;;;;;;;;;;;11.05;98.34;101216.47;4929184;28;21254;-81
2023/10/14 13:26:51;;;;;;;;;;;;;;;10.99;100.00;101230.84;4923615;29;20526;-82
2023/10/14 13:29:36;;;;;;;;;;;;;;;10.96;100.00;101230.09;4926639;28;20341;-81
2023/10/14 13:32:24;;;;;;;;;;;;;;;10.97;100.00;101223.88;4912586;29;19930;-82
2023/10/14 13:35:15;;;;;;;;;;;;;;;10.97;98.80;101229.16;4927505;29;19931;-81
2023/10/14 13:38:02;;;;;;;;;;;;;;;10.97;100.00;101234.47;4925042;28;19931;-82
2023/10/14 13:40:49;;;;;;;;;;;;;;;10.94;100.00;101235.44;4925727;28;19982;-81
2023/10/14 13:43:38;;;;;;;;;;;;;;;10.94;100.00;101251.34;4910995;28;19942;-79
2023/10/14 13:46:25;;;;;;;;;;;;;;;10.95;100.00;101237.16;4927820;28;20382;-85
2023/10/14 13:49:11;;;;;;;;;;;;;;;10.98;100.00;101252.09;4911349;28;20328;-81
2023/10/14 13:51:58;;;;;;;;;;;;;;;10.99;98.30;101248.50;4928009;28;19934;-81
2023/10/14 13:54:44;;;;;;;;;;;;;;;10.98;96.17;101258.25;4924125;28;20033;-80
2023/10/14 13:57:29;;;;;;;;;;;;;;;10.95;97.67;101253.06;4925372;29;19938;-79
2023/10/14 14:00:19;;;;;;;;;;;;;;;10.96;100.00;101262.72;4927119;28;19935;-81
2023/10/14 14:03:09;;;;;;;;;;;;;;;10.97;100.00;101259.19;4911685;29;19931;-81
2023/10/14 14:05:55;;;;;;;;;;;;;;;11.02;95.40;101266.94;4925162;29;20379;-81
2023/10/14 14:08:41;;;;;;;;;;;;;;;11.09;99.82;101256.94;4925558;29;20049;-79
2023/10/14 14:11:29;;;;;;;;;;;;;;;11.17;94.81;101264.59;4901103;28;19934;-82
2023/10/14 14:14:14;;;;;;;;;;;;;;;11.24;100.00;101266.91;4925608;29;20073;-80
2023/10/14 14:17:00;;;;;;;;;;;;;;;11.28;100.00;101286.22;4924191;29;19942;-85
2023/10/14 14:19:46;;;;;;;;;;;;;;;11.21;100.00;101285.59;4925227;29;19930;-84
2023/10/14 14:22:32;;;;;;;;;;;;;;;11.16;100.00;101295.50;4925570;29;19962;-82
2023/10/14 14:25:21;;;;;;;;;;;;;;;11.09;100.00;101291.38;4925039;29;20272;-83
2023/10/14 14:28:09;;;;;;;;;;;;;;;11.02;100.00;101303.16;4925514;29;19936;-85
2023/10/14 14:30:54;;;;;;;;;;;;;;;10.92;100.00;101308.84;4910718;28;19931;-82
2023/10/14 14:33:45;;;;;;;;;;;;;;;10.81;100.00;101318.97;4910893;29;20064;-80
2023/10/14 14:36:33;;;;;;;;;;;;;;;10.58;100.00;101307.50;4926455;29;19930;-78
2023/10/14 14:39:19;;;;;;;;;;;;;;;10.36;100.00;101308.28;4920266;28;20459;-78